MMCS/CJS METAR and TAF weather

Enter ICAO airport designator
Station Type Date Time Source
MMCS METAR 2022/01/25 03:42 UTC NOAA

MMCS 250342Z 29010KT 10SM SKC 11/M06 A2997


Station Type Date Time Source
MMCS Decoded METAR 2022/01/25 03:42 UTC NOAA

Ciudad Juarez International , Mexico (MMCS) 31-38N 106-26W
Jan 24, 2022 - 10:42 PM EST / 2022.01.25 0342 UTC
Wind: from the WNW (290 degrees) at 12 MPH (10 KT):0
Visibility: 10 mile(s):0
Sky conditions: clear
Temperature: 51 F (11 C)
Dew Point: 21 F (-6 C)
Relative Humidity: 29%
Pressure (altimeter): 29.97 in. Hg (1014 hPa)
ob: MMCS 250342Z 29010KT 10SM SKC 11/M06 A2997
cycle: 3

Station Type Date Time Source
MMCS TAF 2022/01/24 18:50 UTC NOAA

TAF MMCS 241742Z 2418/2518 28015KT P6SM SKC
BECMG 2502/2503 28006KT
FM251700 26010KT P6SM SKC

Example: see airport list